createdAt,value
2018-02-23T02:00:02.883Z,-4.80
2018-02-23T02:02:34.540Z,-4.81
2018-02-23T02:05:06.757Z,-5.23
2018-02-23T02:07:38.290Z,-5.18
2018-02-23T02:10:09.998Z,-4.97
2018-02-23T02:12:42.950Z,-4.53
2018-02-23T02:17:59.443Z,-4.98
2018-02-23T02:20:31.976Z,-5.17
2018-02-23T02:23:03.391Z,-5.90
2018-02-23T02:25:35.273Z,-6.38
2018-02-23T02:28:07.960Z,-6.31
2018-02-23T02:30:39.751Z,-6.40
2018-02-23T02:33:12.013Z,-5.95
2018-02-23T02:35:44.068Z,-6.04
2018-02-23T02:38:15.842Z,-6.42
2018-02-23T02:40:47.945Z,-6.64
2018-02-23T02:43:20.048Z,-6.52
2018-02-23T02:45:51.678Z,-5.89
2018-02-23T02:48:23.074Z,-5.50
2018-02-23T02:50:54.250Z,-5.93
2018-02-23T02:53:26.116Z,-6.41
2018-02-23T02:55:57.583Z,-6.45
2018-02-23T02:58:29.394Z,-6.72
2018-02-23T03:01:02.019Z,-6.64
2018-02-23T03:03:34.094Z,-6.41
2018-02-23T03:06:05.745Z,-6.11
2018-02-23T03:08:37.317Z,-5.98
2018-02-23T03:11:09.206Z,-6.16
2018-02-23T03:13:41.755Z,-6.71
2018-02-23T03:16:13.839Z,-6.98
2018-02-23T03:18:46.593Z,-7.17
2018-02-23T03:21:18.076Z,-7.05
2018-02-23T03:23:49.493Z,-6.75
2018-02-23T03:26:39.603Z,-6.59
2018-02-23T03:29:11.529Z,-6.48
2018-02-23T03:31:43.369Z,-6.46
2018-02-23T03:34:15.010Z,-6.66
2018-02-23T03:36:47.074Z,-6.72
2018-02-23T03:39:18.950Z,-6.51
2018-02-23T03:41:50.941Z,-6.20
2018-02-23T03:44:22.640Z,-6.45
2018-02-23T03:46:54.381Z,-6.02
2018-02-23T03:49:26.098Z,-5.71
2018-02-23T03:51:59.969Z,-5.76
2018-02-23T03:54:31.585Z,-5.85
2018-02-23T03:57:03.292Z,-6.07
2018-02-23T03:59:34.377Z,-6.16
2018-02-23T04:02:06.020Z,-6.16
2018-02-23T04:04:38.236Z,-6.42
2018-02-23T04:07:09.861Z,-6.53
2018-02-23T04:09:41.979Z,-6.45
2018-02-23T04:12:13.856Z,-6.38
2018-02-23T04:17:22.977Z,-6.19
2018-02-23T04:19:55.013Z,-5.80
2018-02-23T04:22:26.707Z,-5.40
2018-02-23T04:24:59.013Z,-5.58
2018-02-23T04:27:30.455Z,-5.49
2018-02-23T04:30:02.261Z,-5.62
2018-02-23T04:32:34.104Z,-5.83
2018-02-23T04:35:05.505Z,-5.78
2018-02-23T04:37:37.023Z,-5.97
2018-02-23T04:40:08.616Z,-5.89
2018-02-23T04:42:40.773Z,-6.06
2018-02-23T04:45:12.412Z,-5.50
2018-02-23T04:47:47.506Z,-5.28
2018-02-23T04:50:19.311Z,-5.33
2018-02-23T04:52:51.049Z,-5.76
2018-02-23T04:55:23.097Z,-5.82
2018-02-23T04:57:54.829Z,-6.39
2018-02-23T05:00:31.180Z,-5.98
2018-02-23T05:03:03.593Z,-6.47
2018-02-23T05:05:35.570Z,-6.52
2018-02-23T05:08:07.580Z,-5.99
2018-02-23T05:10:39.132Z,-6.63
2018-02-23T05:13:10.509Z,-6.35
2018-02-23T05:15:42.164Z,-5.85
2018-02-23T05:18:14.013Z,-5.79
2018-02-23T05:20:45.480Z,-5.71
2018-02-23T05:23:16.713Z,-5.47
2018-02-23T05:25:48.912Z,-5.40
2018-02-23T05:28:20.708Z,-5.82
2018-02-23T05:30:52.268Z,-5.81
2018-02-23T05:33:24.106Z,-5.61
2018-02-23T05:35:56.429Z,-5.95
2018-02-23T05:38:28.233Z,-6.38
2018-02-23T05:41:01.084Z,-6.19
2018-02-23T05:43:32.635Z,-6.03
2018-02-23T05:46:04.341Z,-6.74
2018-02-23T05:48:40.628Z,-7.03
2018-02-23T05:51:12.315Z,-6.27
2018-02-23T05:53:43.937Z,-6.60
2018-02-23T05:56:15.483Z,-7.28
2018-02-23T05:58:46.565Z,-6.86
2018-02-23T06:01:19.232Z,-6.65
2018-02-23T06:03:50.430Z,-7.00
2018-02-23T06:06:23.332Z,-6.44
2018-02-23T06:08:55.476Z,-6.67
2018-02-23T06:11:27.843Z,-7.17
2018-02-23T06:13:59.659Z,-7.10
2018-02-23T06:16:30.793Z,-7.20
2018-02-23T06:19:02.527Z,-7.82
2018-02-23T06:21:35.815Z,-7.34
2018-02-23T06:24:07.801Z,-7.75
2018-02-23T06:26:39.681Z,-6.75
2018-02-23T06:29:11.141Z,-7.69
2018-02-23T06:31:42.676Z,-7.37
2018-02-23T06:34:13.886Z,-7.11
2018-02-23T06:36:45.623Z,-7.93
2018-02-23T06:39:16.894Z,-7.17
2018-02-23T06:41:47.981Z,-8.04
2018-02-23T06:44:19.001Z,-8.03
2018-02-23T06:46:55.190Z,-8.12
2018-02-23T06:49:26.236Z,-8.13
2018-02-23T06:51:57.973Z,-7.78
2018-02-23T06:54:31.831Z,-7.62
2018-02-23T06:57:03.247Z,-7.68
2018-02-23T06:59:34.324Z,-6.98
2018-02-23T07:02:06.257Z,-6.75
2018-02-23T07:04:37.323Z,-6.57
2018-02-23T07:07:08.773Z,-6.80
2018-02-23T07:09:40.231Z,-6.62
2018-02-23T07:12:11.340Z,-6.72
2018-02-23T07:14:42.409Z,-6.41
2018-02-23T07:17:13.886Z,-6.34
2018-02-23T07:19:45.022Z,-6.21
2018-02-23T07:22:16.352Z,-6.53
2018-02-23T07:24:47.881Z,-6.15
2018-02-23T07:27:19.374Z,-6.35
2018-02-23T07:29:50.757Z,-6.40
2018-02-23T07:32:22.640Z,-6.09
2018-02-23T07:34:54.640Z,-5.72
2018-02-23T07:37:26.157Z,-5.66
2018-02-23T07:39:57.810Z,-5.50
2018-02-23T07:42:28.873Z,-5.15
2018-02-23T07:44:59.905Z,-5.23
2018-02-23T07:47:33.581Z,-5.37
2018-02-23T07:50:05.196Z,-4.72
2018-02-23T07:52:36.360Z,-4.75
2018-02-23T07:55:08.901Z,-4.77
2018-02-23T07:57:40.374Z,-4.86
2018-02-23T08:00:12.592Z,-4.54
2018-02-23T08:02:43.708Z,-4.31
2018-02-23T08:05:14.802Z,-4.09
2018-02-23T08:07:45.941Z,-4.10
2018-02-23T08:10:17.100Z,-4.10
2018-02-23T08:12:48.270Z,-4.24
2018-02-23T08:15:20.073Z,-4.49
2018-02-23T08:17:52.239Z,-4.02
2018-02-23T08:20:24.157Z,-4.29
2018-02-23T08:22:55.920Z,-3.77
2018-02-23T08:25:27.273Z,-4.46
2018-02-23T08:27:59.725Z,-3.81
2018-02-23T08:30:30.862Z,-3.80
2018-02-23T08:33:02.468Z,-3.79
2018-02-23T08:35:35.599Z,-3.36
2018-02-23T08:38:06.976Z,-3.66
2018-02-23T08:40:38.105Z,-3.33
2018-02-23T08:43:08.849Z,-3.61
2018-02-23T08:45:41.389Z,-4.14
2018-02-23T08:48:14.416Z,-3.46
2018-02-23T08:50:45.836Z,-3.57
2018-02-23T08:53:17.104Z,-3.82
2018-02-23T08:55:50.721Z,-3.75
2018-02-23T08:58:22.293Z,-3.43
2018-02-23T09:00:53.876Z,-3.29
2018-02-23T09:03:24.717Z,-3.39
2018-02-23T09:05:56.186Z,-3.37
2018-02-23T09:08:27.059Z,-3.23
2018-02-23T09:10:58.709Z,-3.31
2018-02-23T09:13:29.521Z,-3.25
2018-02-23T09:16:00.333Z,-2.68
2018-02-23T09:18:31.502Z,-2.72
2018-02-23T09:21:02.331Z,-2.77
2018-02-23T09:23:33.145Z,-2.60
2018-02-23T09:26:04.543Z,-2.56
2018-02-23T09:28:35.304Z,-2.20
2018-02-23T09:31:06.689Z,-2.31
2018-02-23T09:33:47.045Z,-1.98
2018-02-23T09:36:17.839Z,-1.86
2018-02-23T09:38:49.737Z,-2.43
2018-02-23T09:41:20.545Z,-1.88
2018-02-23T09:43:52.903Z,-2.00
2018-02-23T09:46:24.585Z,-1.86
2018-02-23T09:48:55.379Z,-2.22
2018-02-23T09:51:27.232Z,-2.29
2018-02-23T09:53:58.557Z,-2.42
2018-02-23T09:56:29.750Z,-2.22
2018-02-23T09:59:03.828Z,-2.23
2018-02-23T10:01:35.213Z,-2.40
2018-02-23T10:04:06.457Z,-2.33
2018-02-23T10:06:37.956Z,-2.36
2018-02-23T10:09:08.796Z,-2.15
2018-02-23T10:11:39.681Z,-2.10
2018-02-23T10:14:11.411Z,-1.83
2018-02-23T10:16:42.232Z,-1.60
2018-02-23T10:21:48.846Z,-1.52
2018-02-23T10:24:19.628Z,-1.66
2018-02-23T10:26:50.740Z,-1.16
2018-02-23T10:29:21.487Z,-1.27
2018-02-23T10:31:52.332Z,-1.32
2018-02-23T10:34:23.581Z,-1.27
2018-02-23T10:36:54.464Z,-1.01
2018-02-23T10:39:25.898Z,-0.87
2018-02-23T10:41:56.880Z,-1.39
2018-02-23T10:44:28.747Z,-1.09
2018-02-23T10:46:59.818Z,-0.80
2018-02-23T10:49:30.632Z,-0.78
2018-02-23T10:52:01.424Z,-0.86
2018-02-23T10:54:32.517Z,-0.59
2018-02-23T10:57:03.344Z,-0.65
2018-02-23T10:59:34.330Z,-0.81
2018-02-23T11:02:05.765Z,-0.68
2018-02-23T11:04:36.588Z,-0.64
2018-02-23T11:07:07.860Z,-0.22
2018-02-23T11:09:38.620Z,-0.14
2018-02-23T11:12:09.809Z,-0.43
2018-02-23T11:14:41.014Z,-0.10
2018-02-23T11:17:11.836Z,0.03
2018-02-23T11:19:42.906Z,-0.48
2018-02-23T11:22:13.672Z,-0.94
2018-02-23T11:24:44.425Z,-0.18
2018-02-23T11:27:15.249Z,0.18
2018-02-23T11:29:46.022Z,-0.20
2018-02-23T11:32:16.827Z,-0.04
2018-02-23T11:34:47.880Z,0.45
2018-02-23T11:37:18.862Z,0.51
2018-02-23T11:39:49.634Z,0.32
2018-02-23T11:42:20.812Z,0.80
2018-02-23T11:44:52.176Z,-0.21
2018-02-23T11:47:23.592Z,0.20
2018-02-23T11:49:54.309Z,-0.01
2018-02-23T11:52:25.167Z,0.24
2018-02-23T11:54:56.353Z,0.46
2018-02-23T11:57:31.958Z,0.46
2018-02-23T12:00:03.073Z,0.56
2018-02-23T12:02:33.897Z,-0.38
2018-02-23T12:05:06.307Z,-0.51
2018-02-23T12:07:37.681Z,-0.01
2018-02-23T12:10:08.457Z,0.19
2018-02-23T12:12:39.849Z,0.13
2018-02-23T12:15:10.725Z,-0.33
2018-02-23T12:17:41.571Z,-0.03
2018-02-23T12:20:12.418Z,0.33
2018-02-23T12:22:43.317Z,0.11
2018-02-23T12:25:14.153Z,0.56
2018-02-23T12:27:44.893Z,0.61
2018-02-23T12:30:15.745Z,0.05
2018-02-23T12:32:46.996Z,0.27
2018-02-23T12:35:17.762Z,0.50
2018-02-23T12:37:48.612Z,-0.09
2018-02-23T12:40:19.726Z,0.27
2018-02-23T12:42:51.998Z,0.37
2018-02-23T12:45:22.856Z,0.63
2018-02-23T12:47:53.971Z,0.60
2018-02-23T12:50:24.813Z,0.59
2018-02-23T12:52:56.740Z,0.44
2018-02-23T12:55:28.332Z,0.53
2018-02-23T12:57:59.677Z,0.56
2018-02-23T13:00:31.290Z,0.71
2018-02-23T13:03:02.168Z,0.71
2018-02-23T13:05:33.663Z,0.31
2018-02-23T13:08:04.765Z,0.13
2018-02-23T13:10:36.276Z,-0.47
2018-02-23T13:13:07.072Z,-0.39
2018-02-23T13:15:38.860Z,0.15
2018-02-23T13:18:13.317Z,0.20
2018-02-23T13:20:44.411Z,0.09
2018-02-23T13:23:15.689Z,0.20
2018-02-23T13:25:46.501Z,0.24
2018-02-23T13:28:21.444Z,0.19
2018-02-23T13:30:52.256Z,0.17
2018-02-23T13:33:24.189Z,0.17
2018-02-23T13:35:55.835Z,-0.18
2018-02-23T13:38:26.641Z,0.03
2018-02-23T13:41:02.093Z,0.06
2018-02-23T13:43:32.940Z,0.12
2018-02-23T13:46:04.524Z,0.07
2018-02-23T13:48:35.637Z,0.17
2018-02-23T13:51:06.428Z,-0.31
2018-02-23T13:53:41.402Z,-0.11
2018-02-23T13:56:12.595Z,-0.04
2018-02-23T13:58:43.401Z,-0.15
2018-02-23T14:01:14.716Z,-0.16
2018-02-23T14:03:45.481Z,-0.24
2018-02-23T14:06:20.113Z,-0.23
2018-02-23T14:08:51.356Z,-0.36
2018-02-23T14:11:22.565Z,-0.20
2018-02-23T14:13:53.443Z,-0.24
2018-02-23T14:16:25.316Z,-0.30
2018-02-23T14:18:56.192Z,-0.30
2018-02-23T14:21:27.934Z,-0.17
2018-02-23T14:23:59.176Z,-0.35
2018-02-23T14:26:30.029Z,-0.34
2018-02-23T14:29:01.190Z,-0.60
2018-02-23T14:31:33.026Z,-0.71
2018-02-23T14:34:03.829Z,-0.85
2018-02-23T14:36:35.099Z,-1.03
2018-02-23T14:39:06.503Z,-0.85
2018-02-23T14:41:37.633Z,-0.63
2018-02-23T14:44:08.884Z,-1.04
2018-02-23T14:46:40.175Z,-0.72
2018-02-23T14:49:21.182Z,-0.81
2018-02-23T14:51:52.524Z,-1.42
2018-02-23T14:54:25.322Z,-1.31
2018-02-23T14:56:56.441Z,-1.17
2018-02-23T14:59:27.751Z,-1.12
2018-02-23T15:01:58.862Z,-1.07
2018-02-23T15:04:29.726Z,-0.91
2018-02-23T15:07:01.702Z,-0.97
2018-02-23T15:09:32.541Z,-0.83
2018-02-23T15:12:03.329Z,-1.09
2018-02-23T15:14:34.413Z,-1.16
2018-02-23T15:17:05.284Z,-1.12
2018-02-23T15:19:36.083Z,-1.13
2018-02-23T15:22:07.195Z,-1.29
2018-02-23T15:24:37.978Z,-1.79
2018-02-23T15:27:09.251Z,-1.33
2018-02-23T15:29:40.468Z,-1.37
2018-02-23T15:32:30.428Z,-1.35
2018-02-23T15:35:01.609Z,-1.44
2018-02-23T15:37:32.456Z,-1.51
2018-02-23T15:40:03.422Z,-1.57
2018-02-23T15:42:34.540Z,-1.57
2018-02-23T15:45:06.007Z,-1.50
2018-02-23T15:47:37.853Z,-1.53
2018-02-23T15:50:09.130Z,-1.44
2018-02-23T15:52:40.789Z,-1.69
2018-02-23T15:55:11.951Z,-1.74
2018-02-23T15:57:43.269Z,-1.60
2018-02-23T16:00:14.622Z,-1.74
2018-02-23T16:02:46.429Z,-1.67
2018-02-23T16:05:17.928Z,-1.62
2018-02-23T16:07:50.313Z,-1.92
2018-02-23T16:10:21.121Z,-1.74
2018-02-23T16:12:53.672Z,-1.82
2018-02-23T16:15:24.517Z,-1.83
2018-02-23T16:17:56.323Z,-1.74
2018-02-23T16:20:27.424Z,-1.77
2018-02-23T16:22:59.264Z,-1.60
2018-02-23T16:25:30.105Z,-1.76
2018-02-23T16:28:02.281Z,-1.88
2018-02-23T16:30:33.285Z,-2.11
2018-02-23T16:33:04.576Z,-2.12
2018-02-23T16:35:35.427Z,-2.26
2018-02-23T16:38:06.365Z,-2.15
2018-02-23T16:40:37.550Z,-2.13
2018-02-23T16:43:08.472Z,-2.34
2018-02-23T16:45:39.828Z,-2.19
2018-02-23T16:48:10.837Z,-2.53
2018-02-23T16:50:42.697Z,-2.40
2018-02-23T16:53:13.560Z,-2.68
2018-02-23T16:55:47.537Z,-2.50
2018-02-23T16:58:18.416Z,-2.76
2018-02-23T17:00:49.549Z,-2.77
2018-02-23T17:03:20.617Z,-2.88
2018-02-23T17:05:52.028Z,-2.82
2018-02-23T17:08:23.149Z,-2.68
2018-02-23T17:10:54.026Z,-2.53
2018-02-23T17:13:24.790Z,-2.81
2018-02-23T17:15:56.223Z,-2.80
2018-02-23T17:18:27.099Z,-3.15
2018-02-23T17:20:57.948Z,-3.02
2018-02-23T17:23:29.062Z,-3.16
2018-02-23T17:25:59.815Z,-2.96
2018-02-23T17:28:30.585Z,-3.12
2018-02-23T17:31:01.735Z,-3.00
2018-02-23T17:33:32.488Z,-3.17
2018-02-23T17:36:03.393Z,-2.70
2018-02-23T17:38:34.374Z,-3.02
2018-02-23T17:41:05.257Z,-2.78
2018-02-23T17:43:36.328Z,-2.81
2018-02-23T17:46:07.193Z,-3.00
2018-02-23T17:48:37.992Z,-3.03
2018-02-23T17:51:11.289Z,-2.89
2018-02-23T17:53:42.228Z,-2.87
2018-02-23T17:56:13.069Z,-2.83
2018-02-23T17:58:44.397Z,-3.40
2018-02-23T18:01:16.173Z,-3.13
2018-02-23T18:03:47.084Z,-3.32
2018-02-23T18:06:18.334Z,-3.26
2018-02-23T18:08:49.173Z,-3.07
2018-02-23T18:11:22.238Z,-3.02
2018-02-23T18:13:53.088Z,-3.23
2018-02-23T18:16:23.941Z,-3.30
2018-02-23T18:18:55.133Z,-3.07
2018-02-23T18:21:26.157Z,-3.18
2018-02-23T18:23:56.972Z,-3.36
2018-02-23T18:26:28.103Z,-3.40
2018-02-23T18:28:58.977Z,-3.09
2018-02-23T18:31:29.822Z,-3.31
2018-02-23T18:34:01.306Z,-3.55
2018-02-23T18:36:32.250Z,-3.33
2018-02-23T18:39:03.384Z,-3.26
2018-02-23T18:41:34.456Z,-3.50
2018-02-23T18:44:05.296Z,-3.64
2018-02-23T18:46:36.368Z,-3.55
2018-02-23T18:49:07.212Z,-3.56
2018-02-23T18:51:38.763Z,-3.53
2018-02-23T18:54:09.834Z,-3.63
2018-02-23T18:56:40.688Z,-3.53
2018-02-23T18:59:11.442Z,-3.61
2018-02-23T19:01:42.894Z,-3.53
2018-02-23T19:04:14.385Z,-3.38
2018-02-23T19:06:45.993Z,-3.49
2018-02-23T19:09:16.933Z,-3.50
2018-02-23T19:11:47.741Z,-3.50
2018-02-23T19:14:23.985Z,-3.83
2018-02-23T19:16:55.102Z,-3.64
2018-02-23T19:19:26.416Z,-3.55
2018-02-23T19:21:58.416Z,-3.71
2018-02-23T19:24:29.573Z,-3.86
2018-02-23T19:27:00.981Z,-3.72
2018-02-23T19:29:32.209Z,-3.59
2018-02-23T19:32:03.125Z,-3.74
2018-02-23T19:34:34.769Z,-3.79
2018-02-23T19:37:05.914Z,-3.80
2018-02-23T19:39:36.941Z,-3.79
2018-02-23T19:42:08.281Z,-3.67
2018-02-23T19:44:39.045Z,-3.82
2018-02-23T19:47:10.836Z,-3.94
2018-02-23T19:49:42.322Z,-3.82
2018-02-23T19:52:13.500Z,-3.56
2018-02-23T19:54:44.597Z,-3.78
2018-02-23T19:57:16.073Z,-3.43
2018-02-23T19:59:47.172Z,-3.78
2018-02-23T20:02:18.689Z,-3.64
2018-02-23T20:04:51.312Z,-3.27
2018-02-23T20:07:22.561Z,-3.46
2018-02-23T20:09:53.924Z,-4.13
2018-02-23T20:12:25.102Z,-3.54
2018-02-23T20:14:56.583Z,-3.80
2018-02-23T20:17:28.222Z,-3.73
2018-02-23T20:20:01.462Z,-4.38
2018-02-23T20:22:32.790Z,-5.05
2018-02-23T20:25:05.057Z,-4.63
2018-02-23T20:27:36.248Z,-4.85
2018-02-23T20:30:07.817Z,-4.69
2018-02-23T20:32:39.056Z,-4.57
2018-02-23T20:35:10.264Z,-4.92
2018-02-23T20:37:41.765Z,-4.84
2018-02-23T20:40:13.426Z,-4.78
2018-02-23T20:42:44.800Z,-5.26
2018-02-23T20:45:15.937Z,-5.74
2018-02-23T20:47:47.125Z,-5.66
2018-02-23T20:50:18.429Z,-5.66
2018-02-23T20:52:49.532Z,-4.81
2018-02-23T20:55:20.689Z,-5.54
2018-02-23T20:57:52.083Z,-5.34
2018-02-23T21:00:24.124Z,-5.22
2018-02-23T21:02:55.869Z,-5.72
2018-02-23T21:05:27.098Z,-5.58
2018-02-23T21:07:58.488Z,-5.41
2018-02-23T21:10:29.766Z,-5.79
2018-02-23T21:13:02.536Z,-5.00
2018-02-23T21:15:34.012Z,-5.38
2018-02-23T21:18:09.308Z,-5.27
2018-02-23T21:20:40.793Z,-5.10
2018-02-23T21:23:11.981Z,-4.95
2018-02-23T21:25:43.245Z,-5.00
2018-02-23T21:28:14.425Z,-4.91
2018-02-23T21:30:45.769Z,-5.08
2018-02-23T21:33:16.869Z,-5.01
2018-02-23T21:35:48.277Z,-5.20
2018-02-23T21:38:19.426Z,-5.21
2018-02-23T21:40:51.123Z,-4.96
2018-02-23T21:43:22.290Z,-5.02
2018-02-23T21:45:54.709Z,-5.40
2018-02-23T21:48:26.149Z,-5.00
2018-02-23T21:51:00.335Z,-5.13
2018-02-23T21:53:31.488Z,-5.17
2018-02-23T21:56:02.637Z,-4.97
2018-02-23T21:58:34.611Z,-5.36
2018-02-23T22:01:07.212Z,-5.42
2018-02-23T22:03:38.833Z,-5.33
2018-02-23T22:06:10.045Z,-5.59
2018-02-23T22:08:41.374Z,-5.60
2018-02-23T22:11:12.745Z,-5.31
2018-02-23T22:13:44.955Z,-5.37
2018-02-23T22:16:16.178Z,-5.54
2018-02-23T22:18:47.329Z,-5.38
2018-02-23T22:21:19.168Z,-5.52
2018-02-23T22:23:50.602Z,-6.04
2018-02-23T22:26:21.985Z,-5.99
2018-02-23T22:28:53.794Z,-5.89
2018-02-23T22:31:24.921Z,-5.97
2018-02-23T22:33:56.330Z,-5.87
2018-02-23T22:36:27.510Z,-5.90
2018-02-23T22:38:59.713Z,-5.65
2018-02-23T22:41:31.064Z,-5.52
2018-02-23T22:44:02.272Z,-5.58
2018-02-23T22:46:34.604Z,-5.47
2018-02-23T22:49:06.040Z,-5.79
2018-02-23T22:51:37.119Z,-5.61
2018-02-23T22:54:08.541Z,-5.70
2018-02-23T22:56:39.645Z,-5.53
2018-02-23T22:59:11.101Z,-5.60
2018-02-23T23:01:42.557Z,-5.32
2018-02-23T23:04:14.413Z,-5.29
2018-02-23T23:06:45.500Z,-5.19
2018-02-23T23:09:17.515Z,-5.18
2018-02-23T23:11:49.497Z,-5.18
2018-02-23T23:14:20.827Z,-5.21
2018-02-23T23:16:51.828Z,-5.65
2018-02-23T23:19:22.882Z,-5.50
2018-02-23T23:21:55.079Z,-5.51
2018-02-23T23:24:26.938Z,-5.66
2018-02-23T23:26:57.936Z,-5.75
2018-02-23T23:29:29.731Z,-5.66
2018-02-23T23:32:03.348Z,-5.88
2018-02-23T23:34:34.699Z,-6.57
2018-02-23T23:37:05.840Z,-6.47
2018-02-23T23:39:37.448Z,-6.31
2018-02-23T23:42:09.209Z,-6.90
2018-02-23T23:44:53.012Z,-7.14
2018-02-23T23:47:24.987Z,-6.77
2018-02-23T23:49:56.222Z,-6.79
2018-02-23T23:52:27.784Z,-6.77
2018-02-23T23:55:01.011Z,-6.99
2018-02-23T23:57:32.126Z,-7.15
